Time,TemperatureF,DewpointF,PressureIn,WindDirection,WindDirectionDegrees,WindSpeedMPH,WindSpeedGustMPH,Humidity,HourlyPrecipIn,Conditions,Clouds,dailyrainin,SoftwareType,DateUTC
2013-09-14 00:01:00,50.5,44.2,26.52,NW,315,0.0,0.0,79,0.00,,,0.00,WUHU216HW,2013-09-14 04:01:00,
2013-09-14 00:06:00,50.1,44.2,26.52,NW,315,2.0,2.0,80,0.00,,,0.00,WUHU216HW,2013-09-14 04:06:00,
2013-09-14 00:12:00,50.1,44.2,26.51,NW,315,0.6,2.0,80,0.00,,,0.00,WUHU216HW,2013-09-14 04:12:00,
2013-09-14 00:17:00,50.0,44.3,26.51,NW,315,2.4,3.8,81,0.00,,,0.00,WUHU216HW,2013-09-14 04:17:00,
2013-09-14 00:22:00,49.8,44.1,26.51,NW,315,0.6,3.8,81,0.00,,,0.00,WUHU216HW,2013-09-14 04:22:00,
2013-09-14 00:27:00,49.8,44.4,26.52,NW,315,0.0,2.2,82,0.00,,,0.00,WUHU216HW,2013-09-14 04:27:00,
2013-09-14 00:32:00,49.8,44.4,26.52,NW,315,0.0,0.6,82,0.00,,,0.00,WUHU216HW,2013-09-14 04:32:00,
2013-09-14 00:37:00,49.6,44.3,26.52,NW,315,0.0,0.0,82,0.00,,,0.00,WUHU216HW,2013-09-14 04:37:00,
2013-09-14 00:42:00,49.6,44.3,26.52,NW,315,0.0,0.0,82,0.00,,,0.00,WUHU216HW,2013-09-14 04:42:00,
2013-09-14 00:47:00,49.6,44.0,26.51,NW,315,0.0,0.0,81,0.00,,,0.00,WUHU216HW,2013-09-14 04:47:00,
2013-09-14 00:52:00,49.6,44.0,26.52,NW,315,0.0,0.0,81,0.00,,,0.00,WUHU216HW,2013-09-14 04:52:00,
2013-09-14 00:57:00,49.6,44.0,26.52,NW,315,0.0,0.0,81,0.00,,,0.00,WUHU216HW,2013-09-14 04:57:00,
2013-09-14 01:02:00,49.6,44.0,26.52,NW,315,0.0,0.0,81,0.00,,,0.00,WUHU216HW,2013-09-14 05:02:00,
2013-09-14 01:10:00,49.6,44.0,26.52,NW,315,0.0,0.0,81,0.00,,,0.00,WUHU216HW,2013-09-14 05:10:00,
2013-09-14 01:15:00,49.6,44.0,26.51,NW,315,0.0,0.0,81,0.00,,,0.00,WUHU216HW,2013-09-14 05:15:00,
2013-09-14 01:20:00,49.6,44.0,26.52,WNW,293,0.0,0.0,81,0.00,,,0.00,WUHU216HW,2013-09-14 05:20:00,
2013-09-14 01:25:00,49.6,43.7,26.51,WNW,293,0.0,0.0,80,0.00,,,0.00,WUHU216HW,2013-09-14 05:25:00,
2013-09-14 01:30:00,49.2,43.3,26.51,WNW,293,0.0,0.0,80,0.00,,,0.00,WUHU216HW,2013-09-14 05:30:00,
2013-09-14 01:35:00,49.2,43.3,26.52,WNW,293,0.0,0.0,80,0.00,,,0.00,WUHU216HW,2013-09-14 05:35:00,
2013-09-14 01:40:00,49.2,43.3,26.52,WNW,293,0.0,0.0,80,0.00,,,0.00,WUHU216HW,2013-09-14 05:40:00,
2013-09-14 01:45:00,49.2,43.3,26.52,WNW,293,0.0,0.0,80,0.00,,,0.00,WUHU216HW,2013-09-14 05:45:00,
2013-09-14 01:50:00,49.1,43.1,26.52,WNW,293,0.0,0.0,80,0.00,,,0.00,WUHU216HW,2013-09-14 05:50:00,
2013-09-14 01:55:00,49.1,43.1,26.52,WNW,293,0.0,0.0,80,0.00,,,0.00,WUHU216HW,2013-09-14 05:55:00,
2013-09-14 02:00:00,48.9,42.9,26.52,WNW,293,0.0,0.0,80,0.00,,,0.00,WUHU216HW,2013-09-14 06:00:00,
2013-09-14 02:05:00,48.7,42.8,26.52,WNW,293,0.0,0.0,80,0.00,,,0.00,WUHU216HW,2013-09-14 06:05:00,
2013-09-14 02:10:00,48.7,42.8,26.51,WNW,293,0.0,0.0,80,0.00,,,0.00,WUHU216HW,2013-09-14 06:10:00,
2013-09-14 02:15:00,48.7,42.8,26.52,WNW,293,0.0,0.0,80,0.00,,,0.00,WUHU216HW,2013-09-14 06:15:00,
2013-09-14 02:20:00,48.3,42.4,26.52,WNW,293,0.0,0.0,80,0.00,,,0.00,WUHU216HW,2013-09-14 06:20:00,
2013-09-14 02:25:00,48.0,42.0,26.51,WNW,293,0.0,0.0,80,0.00,,,0.00,WUHU216HW,2013-09-14 06:25:00,
2013-09-14 02:30:00,48.0,42.4,26.51,WNW,293,0.0,0.0,81,0.00,,,0.00,WUHU216HW,2013-09-14 06:30:00,
2013-09-14 02:35:00,48.0,42.4,26.51,WNW,293,0.0,0.0,81,0.00,,,0.00,WUHU216HW,2013-09-14 06:35:00,
2013-09-14 02:40:00,48.0,42.4,26.51,WNW,293,0.0,0.0,81,0.00,,,0.00,WUHU216HW,2013-09-14 06:40:00,
2013-09-14 02:45:00,48.0,42.4,26.51,WNW,293,0.0,0.0,81,0.00,,,0.00,WUHU216HW,2013-09-14 06:45:00,
2013-09-14 02:50:00,48.0,42.0,26.51,WNW,293,0.0,0.0,80,0.00,,,0.00,WUHU216HW,2013-09-14 06:50:00,
2013-09-14 02:55:00,48.0,42.0,26.51,WNW,293,0.0,0.0,80,0.00,,,0.00,WUHU216HW,2013-09-14 06:55:00,
2013-09-14 03:00:00,48.0,42.4,26.51,WNW,293,0.0,0.0,81,0.00,,,0.00,WUHU216HW,2013-09-14 07:00:00,
2013-09-14 03:10:00,48.0,42.0,26.51,WNW,293,0.0,0.0,80,0.00,,,0.00,WUHU216HW,2013-09-14 07:10:00,
2013-09-14 03:15:00,48.0,42.0,26.51,WNW,293,0.0,0.0,80,0.00,,,0.00,WUHU216HW,2013-09-14 07:15:00,
2013-09-14 03:20:00,48.0,42.0,26.51,WNW,293,0.0,0.0,80,0.00,,,0.00,WUHU216HW,2013-09-14 07:20:00,
2013-09-14 03:25:00,48.0,42.0,26.51,WNW,293,0.0,0.0,80,0.00,,,0.00,WUHU216HW,2013-09-14 07:25:00,
2013-09-14 03:30:00,48.0,42.4,26.51,WNW,293,0.0,0.0,81,0.00,,,0.00,WUHU216HW,2013-09-14 07:30:00,
2013-09-14 03:35:00,48.0,42.4,26.51,WNW,293,0.0,0.0,81,0.00,,,0.00,WUHU216HW,2013-09-14 07:35:00,
2013-09-14 03:40:00,47.6,41.9,26.51,WNW,293,0.0,0.0,80,0.00,,,0.00,WUHU216HW,2013-09-14 07:40:00,
2013-09-14 03:45:00,47.4,41.9,26.51,WNW,293,0.0,0.0,81,0.00,,,0.00,WUHU216HW,2013-09-14 07:45:00,
2013-09-14 03:50:00,47.1,41.5,26.51,WNW,293,0.0,0.0,81,0.00,,,0.00,WUHU216HW,2013-09-14 07:50:00,
2013-09-14 03:55:00,46.9,41.7,26.51,WNW,293,0.0,0.0,82,0.00,,,0.00,WUHU216HW,2013-09-14 07:55:00,
2013-09-14 04:00:00,46.9,41.7,26.51,WNW,293,0.0,0.0,82,0.00,,,0.00,WUHU216HW,2013-09-14 08:00:00,
2013-09-14 04:05:00,47.1,41.9,26.51,WNW,293,0.0,0.0,82,0.00,,,0.00,WUHU216HW,2013-09-14 08:05:00,
2013-09-14 04:11:00,46.5,41.4,26.51,WNW,293,0.0,0.0,82,0.00,,,0.00,WUHU216HW,2013-09-14 08:11:00,
2013-09-14 04:16:00,46.5,41.4,26.51,WNW,293,0.0,0.0,82,0.00,,,0.00,WUHU216HW,2013-09-14 08:16:00,
2013-09-14 04:21:00,46.5,41.4,26.51,WNW,293,0.0,0.0,82,0.00,,,0.00,WUHU216HW,2013-09-14 08:21:00,
2013-09-14 04:26:00,46.2,41.0,26.51,WNW,293,0.0,0.0,82,0.00,,,0.00,WUHU216HW,2013-09-14 08:26:00,
2013-09-14 04:31:00,46.0,41.1,26.51,WNW,293,0.0,0.0,83,0.00,,,0.00,WUHU216HW,2013-09-14 08:31:00,
2013-09-14 04:36:00,46.2,41.3,26.51,WNW,293,0.0,0.0,83,0.00,,,0.00,WUHU216HW,2013-09-14 08:36:00,
2013-09-14 04:41:00,46.4,41.5,26.51,WNW,293,0.0,0.0,83,0.00,,,0.00,WUHU216HW,2013-09-14 08:41:00,
2013-09-14 04:46:00,46.5,41.7,26.51,WNW,293,0.0,0.0,83,0.00,,,0.00,WUHU216HW,2013-09-14 08:46:00,
2013-09-14 04:51:00,46.5,41.7,26.51,WNW,293,0.0,0.0,83,0.00,,,0.00,WUHU216HW,2013-09-14 08:51:00,
2013-09-14 04:56:00,46.5,41.7,26.52,WNW,293,0.0,0.0,83,0.00,,,0.00,WUHU216HW,2013-09-14 08:56:00,
2013-09-14 05:01:00,46.2,41.3,26.52,WNW,293,0.0,0.0,83,0.00,,,0.00,WUHU216HW,2013-09-14 09:01:00,
2013-09-14 05:06:00,46.0,41.1,26.52,WNW,293,0.0,0.0,83,0.00,,,0.00,WUHU216HW,2013-09-14 09:06:00,
2013-09-14 05:11:00,45.5,40.6,26.51,WNW,293,0.0,0.0,83,0.00,,,0.00,WUHU216HW,2013-09-14 09:11:00,
2013-09-14 05:16:00,45.3,40.4,26.52,WNW,293,0.0,0.0,83,0.00,,,0.00,WUHU216HW,2013-09-14 09:16:00,
2013-09-14 05:21:00,45.3,40.4,26.52,WNW,293,0.0,0.0,83,0.00,,,0.00,WUHU216HW,2013-09-14 09:21:00,
2013-09-14 05:26:00,44.9,40.1,26.52,WNW,293,0.0,0.0,83,0.00,,,0.00,WUHU216HW,2013-09-14 09:26:00,
2013-09-14 05:31:00,44.7,40.2,26.51,WNW,293,0.0,0.0,84,0.00,,,0.00,WUHU216HW,2013-09-14 09:31:00,
2013-09-14 05:36:00,44.9,40.4,26.52,WNW,293,0.0,0.0,84,0.00,,,0.00,WUHU216HW,2013-09-14 09:36:00,
2013-09-14 05:41:00,45.1,40.6,26.52,WNW,293,0.0,0.0,84,0.00,,,0.00,WUHU216HW,2013-09-14 09:41:00,
2013-09-14 05:46:00,45.3,40.7,26.52,WNW,293,0.0,0.0,84,0.00,,,0.00,WUHU216HW,2013-09-14 09:46:00,
2013-09-14 05:51:00,45.3,40.7,26.53,WNW,293,0.0,0.0,84,0.00,,,0.00,WUHU216HW,2013-09-14 09:51:00,
2013-09-14 05:56:00,45.3,40.7,26.53,WNW,293,0.0,0.0,84,0.00,,,0.00,WUHU216HW,2013-09-14 09:56:00,
2013-09-14 06:01:00,45.3,40.7,26.53,WNW,293,0.0,0.0,84,0.00,,,0.00,WUHU216HW,2013-09-14 10:01:00,
2013-09-14 06:06:00,45.3,41.0,26.53,WNW,293,0.0,0.0,84,0.00,,,0.00,WUHU216HW,2013-09-14 10:06:00,
2013-09-14 06:11:00,45.5,41.2,26.53,WNW,293,0.0,0.0,85,0.00,,,0.00,WUHU216HW,2013-09-14 10:11:00,
2013-09-14 06:16:00,45.6,41.4,26.53,WNW,293,0.0,0.0,85,0.00,,,0.00,WUHU216HW,2013-09-14 10:16:00,
2013-09-14 06:21:00,45.6,41.4,26.53,WNW,293,0.0,0.0,85,0.00,,,0.00,WUHU216HW,2013-09-14 10:21:00,
2013-09-14 06:26:00,45.6,41.4,26.53,WNW,293,0.0,0.0,85,0.00,,,0.00,WUHU216HW,2013-09-14 10:26:00,
2013-09-14 06:31:00,45.6,41.4,26.53,WNW,293,0.0,0.0,85,0.00,,,0.00,WUHU216HW,2013-09-14 10:31:00,
2013-09-14 06:36:00,45.6,41.1,26.53,WNW,293,0.0,0.0,84,0.00,,,0.00,WUHU216HW,2013-09-14 10:36:00,
2013-09-14 06:41:00,45.6,41.1,26.53,WNW,293,0.0,0.0,84,0.00,,,0.00,WUHU216HW,2013-09-14 10:41:00,
2013-09-14 06:46:00,45.6,41.1,26.53,WNW,293,0.0,0.0,84,0.00,,,0.00,WUHU216HW,2013-09-14 10:46:00,
2013-09-14 06:51:00,45.6,41.1,26.53,WNW,293,0.0,0.0,84,0.00,,,0.00,WUHU216HW,2013-09-14 10:51:00,
2013-09-14 06:56:00,45.5,41.2,26.53,WNW,293,0.0,0.0,85,0.00,,,0.00,WUHU216HW,2013-09-14 10:56:00,
2013-09-14 07:01:00,45.5,41.2,26.54,WNW,293,0.0,0.0,85,0.00,,,0.00,WUHU216HW,2013-09-14 11:01:00,
2013-09-14 07:06:00,45.3,41.0,26.54,WNW,293,0.0,0.0,85,0.00,,,0.00,WUHU216HW,2013-09-14 11:06:00,
2013-09-14 07:11:00,45.1,40.6,26.55,WNW,293,0.0,0.0,84,0.00,,,0.00,WUHU216HW,2013-09-14 11:11:00,
2013-09-14 07:16:00,44.9,40.7,26.56,WNW,293,0.0,0.0,85,0.00,,,0.00,WUHU216HW,2013-09-14 11:16:00,
2013-09-14 07:21:00,44.9,40.7,26.56,WNW,293,0.0,0.0,85,0.00,,,0.00,WUHU216HW,2013-09-14 11:21:00,
2013-09-14 07:26:00,44.9,40.7,26.55,WNW,293,0.0,0.0,85,0.00,,,0.00,WUHU216HW,2013-09-14 11:26:00,
2013-09-14 07:31:00,45.1,40.9,26.56,WNW,293,0.0,0.0,85,0.00,,,0.00,WUHU216HW,2013-09-14 11:31:00,
2013-09-14 07:36:00,44.9,40.7,26.56,WNW,293,0.0,0.0,85,0.00,,,0.00,WUHU216HW,2013-09-14 11:36:00,
2013-09-14 07:41:00,45.1,40.9,26.56,WNW,293,0.0,0.0,85,0.00,,,0.00,WUHU216HW,2013-09-14 11:41:00,
2013-09-14 07:46:00,45.1,40.9,26.56,WNW,293,0.0,0.0,85,0.00,,,0.00,WUHU216HW,2013-09-14 11:46:00,
2013-09-14 07:51:00,45.3,41.0,26.56,WNW,293,0.0,0.0,85,0.00,,,0.00,WUHU216HW,2013-09-14 11:51:00,
2013-09-14 07:56:00,45.3,41.0,26.56,WNW,293,0.0,0.0,85,0.00,,,0.00,WUHU216HW,2013-09-14 11:56:00,
2013-09-14 08:01:00,45.3,41.0,26.57,WNW,293,0.0,0.0,85,0.00,,,0.00,WUHU216HW,2013-09-14 12:01:00,
2013-09-14 08:06:00,45.5,41.2,26.57,WNW,293,0.0,0.0,85,0.00,,,0.00,WUHU216HW,2013-09-14 12:06:00,
2013-09-14 08:12:00,45.5,41.2,26.57,WNW,293,0.0,0.0,85,0.00,,,0.00,WUHU216HW,2013-09-14 12:12:00,
2013-09-14 08:17:00,45.6,41.7,26.57,WNW,293,0.0,0.0,86,0.00,,,0.00,WUHU216HW,2013-09-14 12:17:00,
2013-09-14 08:22:00,45.8,41.9,26.57,WNW,293,0.0,0.0,86,0.00,,,0.00,WUHU216HW,2013-09-14 12:22:00,
2013-09-14 08:27:00,46.0,42.1,26.57,WNW,293,0.0,0.0,86,0.00,,,0.00,WUHU216HW,2013-09-14 12:27:00,
2013-09-14 08:32:00,46.0,42.1,26.58,WNW,293,0.0,0.0,86,0.00,,,0.00,WUHU216HW,2013-09-14 12:32:00,
2013-09-14 08:37:00,46.0,42.1,26.58,WNW,293,0.0,0.0,86,0.00,,,0.00,WUHU216HW,2013-09-14 12:37:00,
2013-09-14 08:42:00,46.0,42.1,26.58,WNW,293,0.0,0.0,86,0.00,,,0.00,WUHU216HW,2013-09-14 12:42:00,
2013-09-14 08:47:00,46.0,42.1,26.58,WNW,293,0.0,0.0,86,0.00,,,0.00,WUHU216HW,2013-09-14 12:47:00,
2013-09-14 09:04:00,46.5,42.6,26.59,WNW,293,0.0,0.0,86,0.00,,,0.00,WUHU216HW,2013-09-14 13:04:00,
2013-09-14 09:09:00,46.7,42.8,26.59,WNW,293,0.0,0.0,86,0.00,,,0.00,WUHU216HW,2013-09-14 13:09:00,
2013-09-14 09:14:00,46.7,42.8,26.59,WNW,293,0.0,0.0,86,0.00,,,0.00,WUHU216HW,2013-09-14 13:14:00,
2013-09-14 09:19:00,46.7,42.8,26.59,WNW,293,0.0,0.0,86,0.00,,,0.00,WUHU216HW,2013-09-14 13:19:00,
2013-09-14 10:25:00,51.6,47.5,26.61,NNW,338,0.0,0.0,86,0.00,,,0.00,WUHU216HW,2013-09-14 14:25:00,
2013-09-14 10:30:00,52.3,48.2,26.60,NNW,338,0.0,0.0,86,0.00,,,0.00,WUHU216HW,2013-09-14 14:30:00,
2013-09-14 10:35:00,52.7,48.2,26.61,NNW,338,0.0,0.0,85,0.00,,,0.00,WUHU216HW,2013-09-14 14:35:00,
2013-09-14 10:40:00,53.2,48.5,26.61,NNW,338,0.0,0.0,84,0.00,,,0.00,WUHU216HW,2013-09-14 14:40:00,
2013-09-14 10:45:00,53.4,48.7,26.61,NNW,338,0.0,0.0,84,0.00,,,0.00,WUHU216HW,2013-09-14 14:45:00,
2013-09-14 10:50:00,53.7,48.9,26.61,NNW,338,0.0,0.0,83,0.00,,,0.00,WUHU216HW,2013-09-14 14:50:00,
2013-09-14 10:55:00,54.3,48.9,26.61,NNW,338,0.0,0.0,82,0.00,,,0.00,WUHU216HW,2013-09-14 14:55:00,
2013-09-14 11:00:00,54.5,49.1,26.61,NNW,338,0.0,0.0,82,0.00,,,0.00,WUHU216HW,2013-09-14 15:00:00,
2013-09-14 11:05:00,55.4,49.6,26.60,NNW,338,0.0,0.0,81,0.00,,,0.00,WUHU216HW,2013-09-14 15:05:00,
2013-09-14 11:10:00,55.7,49.6,26.61,NNW,338,0.0,0.0,80,0.00,,,0.00,WUHU216HW,2013-09-14 15:10:00,
2013-09-14 11:15:00,56.1,50.0,26.61,NNW,338,0.0,0.0,80,0.00,,,0.00,WUHU216HW,2013-09-14 15:15:00,
2013-09-14 11:21:00,56.8,50.3,26.61,North,0,0.0,0.0,79,0.00,,,0.00,WUHU216HW,2013-09-14 15:21:00,
2013-09-14 11:26:00,57.9,51.4,26.61,North,0,0.0,0.0,79,0.00,,,0.00,WUHU216HW,2013-09-14 15:26:00,
2013-09-14 11:31:00,58.8,51.9,26.61,ENE,68,0.0,0.0,78,0.00,,,0.00,WUHU216HW,2013-09-14 15:31:00,
2013-09-14 11:36:00,59.5,51.8,26.61,ENE,68,0.0,0.0,75,0.00,,,0.00,WUHU216HW,2013-09-14 15:36:00,
2013-09-14 11:41:00,60.0,52.1,26.61,ENE,68,0.0,0.0,75,0.00,,,0.00,WUHU216HW,2013-09-14 15:41:00,
2013-09-14 11:46:00,60.2,51.9,26.61,ENE,68,0.0,0.0,74,0.00,,,0.00,WUHU216HW,2013-09-14 15:46:00,
2013-09-14 11:51:00,60.2,51.6,26.61,ENE,68,0.0,0.0,73,0.00,,,0.00,WUHU216HW,2013-09-14 15:51:00,
2013-09-14 11:56:00,60.4,51.8,26.61,ENE,68,0.0,0.0,73,0.00,,,0.00,WUHU216HW,2013-09-14 15:56:00,
2013-09-14 12:01:00,60.4,51.8,26.61,ENE,68,0.0,0.0,73,0.00,,,0.00,WUHU216HW,2013-09-14 16:01:00,
2013-09-14 12:06:00,60.9,52.3,26.61,ENE,68,0.0,0.0,73,0.00,,,0.00,WUHU216HW,2013-09-14 16:06:00,
2013-09-14 12:11:00,61.7,52.2,26.61,ENE,68,0.0,0.0,71,0.00,,,0.00,WUHU216HW,2013-09-14 16:11:00,
2013-09-14 12:16:00,62.2,52.7,26.61,ENE,68,0.0,0.0,71,0.00,,,0.00,WUHU216HW,2013-09-14 16:16:00,
2013-09-14 12:21:00,63.3,53.6,26.60,ENE,68,0.0,0.0,71,0.00,,,0.00,WUHU216HW,2013-09-14 16:21:00,
2013-09-14 12:26:00,64.2,53.4,26.61,ENE,68,0.0,0.0,68,0.00,,,0.00,WUHU216HW,2013-09-14 16:26:00,
2013-09-14 12:31:00,64.0,52.4,26.60,ENE,68,0.0,0.0,66,0.00,,,0.00,WUHU216HW,2013-09-14 16:31:00,
2013-09-14 12:36:00,63.1,51.5,26.60,ENE,68,0.0,0.0,66,0.00,,,0.00,WUHU216HW,2013-09-14 16:36:00,
2013-09-14 12:41:00,62.6,51.0,26.60,ENE,68,0.0,0.0,66,0.00,,,0.00,WUHU216HW,2013-09-14 16:41:00,
2013-09-14 12:46:00,62.7,51.6,26.60,ENE,68,0.0,0.0,67,0.00,,,0.00,WUHU216HW,2013-09-14 16:46:00,
2013-09-14 12:51:00,63.3,52.1,26.60,ENE,68,0.0,0.0,67,0.00,,,0.00,WUHU216HW,2013-09-14 16:51:00,
2013-09-14 12:56:00,63.5,51.9,26.60,ENE,68,0.0,0.0,66,0.00,,,0.00,WUHU216HW,2013-09-14 16:56:00,
2013-09-14 13:01:00,63.5,51.9,26.60,ENE,68,0.0,0.0,66,0.00,,,0.00,WUHU216HW,2013-09-14 17:01:00,
2013-09-14 13:06:00,62.7,51.2,26.60,ENE,68,0.0,0.0,66,0.00,,,0.00,WUHU216HW,2013-09-14 17:06:00,
2013-09-14 13:11:00,62.4,50.4,26.61,ENE,68,0.0,0.0,65,0.00,,,0.00,WUHU216HW,2013-09-14 17:11:00,
2013-09-14 13:16:00,62.4,50.8,26.60,ENE,68,0.0,0.0,66,0.00,,,0.00,WUHU216HW,2013-09-14 17:16:00,
2013-09-14 13:21:00,62.9,51.3,26.60,ENE,68,0.0,0.0,66,0.00,,,0.00,WUHU216HW,2013-09-14 17:21:00,
2013-09-14 13:26:00,63.5,51.9,26.60,ENE,68,0.0,0.0,66,0.00,,,0.00,WUHU216HW,2013-09-14 17:26:00,
2013-09-14 13:31:00,64.0,52.8,26.60,ENE,68,0.0,0.0,67,0.00,,,0.00,WUHU216HW,2013-09-14 17:31:00,
2013-09-14 13:36:00,65.8,54.1,26.60,ENE,68,0.0,0.0,66,0.00,,,0.00,WUHU216HW,2013-09-14 17:36:00,
2013-09-14 13:41:00,66.3,54.2,26.60,ENE,68,0.0,0.0,65,0.00,,,0.00,WUHU216HW,2013-09-14 17:41:00,
2013-09-14 13:46:00,66.9,53.8,26.60,ENE,68,0.0,0.0,63,0.00,,,0.00,WUHU216HW,2013-09-14 17:46:00,
2013-09-14 13:51:00,67.2,53.3,26.59,ENE,68,0.0,0.0,61,0.00,,,0.00,WUHU216HW,2013-09-14 17:51:00,
2013-09-14 13:56:00,66.7,52.8,26.59,ENE,68,0.0,0.0,61,0.00,,,0.00,WUHU216HW,2013-09-14 17:56:00,
2013-09-14 14:01:00,66.5,52.7,26.59,ENE,68,0.0,0.0,61,0.00,,,0.00,WUHU216HW,2013-09-14 18:01:00,
2013-09-14 14:06:00,66.9,53.8,26.59,ENE,68,0.0,0.0,63,0.00,,,0.00,WUHU216HW,2013-09-14 18:06:00,
2013-09-14 14:11:00,67.1,53.6,26.59,ENE,68,0.0,0.0,62,0.00,,,0.00,WUHU216HW,2013-09-14 18:11:00,
2013-09-14 14:16:00,66.9,53.0,26.59,ENE,68,0.0,0.0,61,0.00,,,0.00,WUHU216HW,2013-09-14 18:16:00,
2013-09-14 14:21:00,67.6,54.1,26.59,ENE,68,0.0,0.0,62,0.00,,,0.00,WUHU216HW,2013-09-14 18:21:00,
2013-09-14 14:26:00,67.8,54.7,26.59,ENE,68,0.0,0.0,63,0.00,,,0.00,WUHU216HW,2013-09-14 18:26:00,
2013-09-14 14:31:00,68.1,54.1,26.58,ENE,68,0.0,0.0,61,0.00,,,0.00,WUHU216HW,2013-09-14 18:31:00,
2013-09-14 14:36:00,68.7,55.5,26.59,ENE,68,0.0,0.0,63,0.00,,,0.00,WUHU216HW,2013-09-14 18:36:00,
2013-09-14 14:41:00,69.0,55.5,26.59,ENE,68,0.0,0.0,62,0.00,,,0.00,WUHU216HW,2013-09-14 18:41:00,
2013-09-14 14:46:00,67.8,52.9,26.59,ENE,68,0.0,0.0,59,0.00,,,0.00,WUHU216HW,2013-09-14 18:46:00,
2013-09-14 14:51:00,66.5,51.3,26.59,NNE,23,0.0,0.0,58,0.00,,,0.00,WUHU216HW,2013-09-14 18:51:00,
2013-09-14 14:56:00,66.0,51.8,26.59,WSW,248,0.0,0.0,60,0.00,,,0.00,WUHU216HW,2013-09-14 18:56:00,
2013-09-14 15:01:00,66.3,52.5,26.59,WSW,248,0.0,0.0,61,0.00,,,0.00,WUHU216HW,2013-09-14 19:01:00,
2013-09-14 15:06:00,66.0,51.8,26.58,WSW,248,0.0,0.0,60,0.00,,,0.00,WUHU216HW,2013-09-14 19:06:00,
2013-09-14 15:11:00,66.0,51.8,26.58,NNE,23,0.0,0.0,60,0.00,,,0.00,WUHU216HW,2013-09-14 19:11:00,
2013-09-14 15:16:00,65.4,51.2,26.59,NNE,23,0.0,0.0,60,0.00,,,0.00,WUHU216HW,2013-09-14 19:16:00,
2013-09-14 15:21:00,65.6,51.4,26.58,NNE,23,0.0,0.0,60,0.00,,,0.00,WUHU216HW,2013-09-14 19:21:00,
2013-09-14 15:26:00,65.6,51.4,26.58,NNE,23,0.0,0.0,60,0.00,,,0.00,WUHU216HW,2013-09-14 19:26:00,
2013-09-14 15:31:00,65.8,52.0,26.58,NNE,23,0.0,0.0,61,0.00,,,0.00,WUHU216HW,2013-09-14 19:31:00,
2013-09-14 15:36:00,66.3,52.5,26.58,NNE,23,0.0,0.0,61,0.00,,,0.00,WUHU216HW,2013-09-14 19:36:00,
2013-09-14 15:41:00,65.6,51.4,26.58,NNE,23,0.0,0.0,60,0.00,,,0.00,WUHU216HW,2013-09-14 19:41:00,
2013-09-14 15:47:00,64.5,49.3,26.58,NNE,23,0.0,0.0,58,0.00,,,0.00,WUHU216HW,2013-09-14 19:47:00,
2013-09-14 15:52:00,64.2,49.5,26.58,NNE,23,0.0,0.0,59,0.00,,,0.00,WUHU216HW,2013-09-14 19:52:00,
2013-09-14 15:57:00,63.6,48.5,26.58,NNE,23,0.0,0.0,58,0.00,,,0.00,WUHU216HW,2013-09-14 19:57:00,
2013-09-14 16:02:00,63.6,49.0,26.58,NNE,23,0.0,0.0,59,0.00,,,0.00,WUHU216HW,2013-09-14 20:02:00,
2013-09-14 16:07:00,63.6,49.0,26.58,NNE,23,0.0,0.0,59,0.00,,,0.00,WUHU216HW,2013-09-14 20:07:00,
2013-09-14 16:12:00,63.5,48.8,26.58,NNE,23,0.0,0.0,59,0.00,,,0.00,WUHU216HW,2013-09-14 20:12:00,
2013-09-14 16:17:00,63.3,49.2,26.58,NNE,23,0.0,0.0,60,0.00,,,0.00,WUHU216HW,2013-09-14 20:17:00,
2013-09-14 16:22:00,63.3,49.2,26.58,NNE,23,0.0,0.0,60,0.00,,,0.00,WUHU216HW,2013-09-14 20:22:00,
2013-09-14 16:27:00,63.3,49.2,26.58,NNE,23,0.0,0.0,60,0.00,,,0.00,WUHU216HW,2013-09-14 20:27:00,
2013-09-14 16:32:00,63.3,49.2,26.58,NNE,23,0.0,0.0,60,0.00,,,0.00,WUHU216HW,2013-09-14 20:32:00,
2013-09-14 16:37:00,63.5,49.3,26.58,NNE,23,0.0,0.0,60,0.00,,,0.00,WUHU216HW,2013-09-14 20:37:00,
2013-09-14 16:42:00,63.3,48.7,26.59,NNE,23,0.0,0.0,59,0.00,,,0.00,WUHU216HW,2013-09-14 20:42:00,
2013-09-14 16:47:00,63.3,48.7,26.59,NNE,23,0.0,0.0,59,0.00,,,0.00,WUHU216HW,2013-09-14 20:47:00,
2013-09-14 16:52:00,63.1,48.5,26.58,NNE,23,0.0,0.0,59,0.00,,,0.00,WUHU216HW,2013-09-14 20:52:00,
2013-09-14 16:57:00,63.3,48.7,26.59,NNE,23,0.0,0.0,59,0.00,,,0.00,WUHU216HW,2013-09-14 20:57:00,
2013-09-14 17:02:00,63.3,48.7,26.58,NNE,23,0.0,0.0,59,0.00,,,0.00,WUHU216HW,2013-09-14 21:02:00,
2013-09-14 17:07:00,63.5,49.3,26.58,NNE,23,0.0,0.0,60,0.00,,,0.00,WUHU216HW,2013-09-14 21:07:00,
2013-09-14 17:12:00,63.3,49.2,26.59,NNE,23,0.0,0.0,60,0.00,,,0.00,WUHU216HW,2013-09-14 21:12:00,
2013-09-14 17:17:00,63.5,49.3,26.59,NNE,23,0.0,0.0,60,0.00,,,0.00,WUHU216HW,2013-09-14 21:17:00,
2013-09-14 17:22:00,63.5,49.3,26.59,NNE,23,0.0,0.0,60,0.00,,,0.00,WUHU216HW,2013-09-14 21:22:00,
2013-09-14 17:27:00,63.5,49.3,26.59,NNE,23,0.0,0.0,60,0.00,,,0.00,WUHU216HW,2013-09-14 21:27:00,
2013-09-14 17:32:00,63.6,49.5,26.59,NNE,23,0.0,0.0,60,0.00,,,0.00,WUHU216HW,2013-09-14 21:32:00,
2013-09-14 17:37:00,63.6,49.5,26.59,NNE,23,0.0,0.0,60,0.00,,,0.00,WUHU216HW,2013-09-14 21:37:00,
2013-09-14 17:42:00,63.5,49.3,26.59,NNE,23,0.0,0.0,60,0.00,,,0.00,WUHU216HW,2013-09-14 21:42:00,
2013-09-14 17:47:00,63.3,48.7,26.60,NNE,23,0.0,0.0,59,0.00,,,0.00,WUHU216HW,2013-09-14 21:47:00,
2013-09-14 17:52:00,63.5,48.8,26.61,NNE,23,0.0,0.0,59,0.00,,,0.00,WUHU216HW,2013-09-14 21:52:00,
2013-09-14 17:57:00,63.5,49.3,26.61,NNE,23,0.0,0.0,59,0.00,,,0.00,WUHU216HW,2013-09-14 21:57:00,
2013-09-14 18:02:00,63.5,49.3,26.61,NNE,23,0.0,0.0,60,0.00,,,0.00,WUHU216HW,2013-09-14 22:02:00,
2013-09-14 18:07:00,63.5,49.3,26.61,NNE,23,0.0,0.0,60,0.00,,,0.00,WUHU216HW,2013-09-14 22:07:00,
2013-09-14 18:12:00,63.5,49.3,26.61,NNE,23,0.0,0.0,60,0.00,,,0.00,WUHU216HW,2013-09-14 22:12:00,
2013-09-14 18:17:00,63.5,49.7,26.61,NNE,23,0.0,0.0,61,0.00,,,0.00,WUHU216HW,2013-09-14 22:17:00,
2013-09-14 18:22:00,63.5,49.7,26.60,NNE,23,0.0,0.0,61,0.00,,,0.00,WUHU216HW,2013-09-14 22:22:00,
2013-09-14 18:27:00,63.5,49.7,26.61,NNE,23,0.0,0.0,61,0.00,,,0.00,WUHU216HW,2013-09-14 22:27:00,
2013-09-14 18:32:00,63.5,50.2,26.61,NNE,23,0.0,0.0,62,0.00,,,0.00,WUHU216HW,2013-09-14 22:32:00,
2013-09-14 18:37:00,63.3,50.0,26.61,NNE,23,0.0,0.0,62,0.00,,,0.00,WUHU216HW,2013-09-14 22:37:00,
2013-09-14 18:42:00,63.1,50.7,26.61,NNE,23,0.0,0.0,64,0.00,,,0.00,WUHU216HW,2013-09-14 22:42:00,
2013-09-14 18:47:00,63.1,50.7,26.61,NNE,23,0.0,0.0,64,0.00,,,0.00,WUHU216HW,2013-09-14 22:47:00,
2013-09-14 18:52:00,62.9,50.5,26.61,NNE,23,0.0,0.0,64,0.00,,,0.00,WUHU216HW,2013-09-14 22:52:00,
2013-09-14 18:57:00,62.7,50.7,26.61,NNE,23,0.0,0.0,65,0.00,,,0.00,WUHU216HW,2013-09-14 22:57:00,
2013-09-14 19:02:00,62.7,50.7,26.61,NNE,23,0.0,0.0,65,0.00,,,0.00,WUHU216HW,2013-09-14 23:02:00,
2013-09-14 19:07:00,62.4,50.8,26.61,NNE,23,0.0,0.0,66,0.00,,,0.00,WUHU216HW,2013-09-14 23:07:00,
2013-09-14 19:12:00,62.0,50.9,26.61,ENE,68,0.0,0.0,67,0.00,,,0.00,WUHU216HW,2013-09-14 23:12:00,
2013-09-14 19:17:00,62.0,50.9,26.61,ENE,68,0.0,0.0,67,0.00,,,0.00,WUHU216HW,2013-09-14 23:17:00,
2013-09-14 19:22:00,62.0,50.9,26.61,ENE,68,0.0,0.0,67,0.00,,,0.00,WUHU216HW,2013-09-14 23:22:00,
2013-09-14 19:27:00,62.0,50.9,26.61,ENE,68,0.0,0.0,67,0.00,,,0.00,WUHU216HW,2013-09-14 23:27:00,
2013-09-14 19:32:00,62.0,50.9,26.61,ENE,68,0.0,0.0,67,0.00,,,0.00,WUHU216HW,2013-09-14 23:32:00,
2013-09-14 19:49:00,60.4,51.4,26.62,ENE,68,0.0,0.0,72,0.00,,,0.00,WUHU216HW,2013-09-14 23:49:00,
2013-09-14 19:54:00,60.4,51.4,26.62,ENE,68,0.0,0.0,72,0.00,,,0.00,WUHU216HW,2013-09-14 23:54:00,
2013-09-14 19:59:00,60.4,51.4,26.62,ENE,68,0.0,0.0,72,0.00,,,0.00,WUHU216HW,2013-09-14 23:59:00,
2013-09-14 20:04:00,60.4,51.4,26.63,ENE,68,0.0,0.0,72,0.00,,,0.00,WUHU216HW,2013-09-15 00:04:00,
2013-09-14 20:09:00,60.4,51.4,26.62,ENE,68,0.0,0.0,72,0.00,,,0.00,WUHU216HW,2013-09-15 00:09:00,
2013-09-14 20:14:00,60.4,51.4,26.62,ENE,68,0.0,0.0,72,0.00,,,0.00,WUHU216HW,2013-09-15 00:14:00,
2013-09-14 20:31:00,59.0,50.3,26.63,ENE,68,0.0,0.0,73,0.00,,,0.00,WUHU216HW,2013-09-15 00:31:00,
2013-09-14 20:36:00,58.8,50.1,26.64,ENE,68,0.0,0.0,73,0.00,,,0.00,WUHU216HW,2013-09-15 00:36:00,
2013-09-14 20:41:00,58.8,50.1,26.63,ENE,68,0.0,0.0,73,0.00,,,0.00,WUHU216HW,2013-09-15 00:41:00,
2013-09-14 20:46:00,58.8,50.1,26.64,ENE,68,0.0,0.0,73,0.00,,,0.00,WUHU216HW,2013-09-15 00:46:00,
2013-09-14 20:51:00,58.8,50.5,26.64,ENE,68,0.0,0.0,74,0.00,,,0.00,WUHU216HW,2013-09-15 00:51:00,
2013-09-14 20:56:00,58.8,50.5,26.64,ENE,68,0.0,0.0,74,0.00,,,0.00,WUHU216HW,2013-09-15 00:56:00,
2013-09-14 21:01:00,58.6,50.7,26.64,ENE,68,0.0,0.0,75,0.00,,,0.00,WUHU216HW,2013-09-15 01:01:00,
2013-09-14 21:06:00,58.6,50.7,26.64,ENE,68,0.0,0.0,75,0.00,,,0.00,WUHU216HW,2013-09-15 01:06:00,
2013-09-14 21:12:00,58.2,50.0,26.64,ENE,68,0.0,0.0,74,0.00,,,0.00,WUHU216HW,2013-09-15 01:12:00,
2013-09-14 21:17:00,58.2,50.3,26.64,ENE,68,0.0,0.0,75,0.00,,,0.00,WUHU216HW,2013-09-15 01:17:00,
2013-09-14 21:22:00,58.2,50.3,26.64,ENE,68,0.0,0.0,75,0.00,,,0.00,WUHU216HW,2013-09-15 01:22:00,
2013-09-14 21:27:00,58.1,50.1,26.64,ENE,68,0.0,0.0,75,0.00,,,0.00,WUHU216HW,2013-09-15 01:27:00,
2013-09-14 21:32:00,57.9,50.0,26.64,ENE,68,0.0,0.0,75,0.00,,,0.00,WUHU216HW,2013-09-15 01:32:00,
2013-09-14 21:37:00,57.9,50.0,26.64,ENE,68,0.0,0.0,75,0.00,,,0.00,WUHU216HW,2013-09-15 01:37:00,
2013-09-14 21:42:00,57.9,50.3,26.64,ENE,68,0.0,0.0,76,0.00,,,0.00,WUHU216HW,2013-09-15 01:42:00,
2013-09-14 21:47:00,57.7,50.1,26.64,ENE,68,0.0,0.0,76,0.00,,,0.00,WUHU216HW,2013-09-15 01:47:00,
2013-09-14 21:52:00,57.7,50.1,26.65,ENE,68,0.0,0.0,76,0.00,,,0.00,WUHU216HW,2013-09-15 01:52:00,
2013-09-14 21:57:00,57.5,50.0,26.65,ENE,68,0.0,0.0,76,0.00,,,0.00,WUHU216HW,2013-09-15 01:57:00,
2013-09-14 22:02:00,57.3,49.8,26.65,ENE,68,0.0,0.0,76,0.00,,,0.00,WUHU216HW,2013-09-15 02:02:00,
2013-09-14 22:07:00,57.2,49.6,26.65,ENE,68,0.0,0.0,76,0.00,,,0.00,WUHU216HW,2013-09-15 02:07:00,
2013-09-14 22:12:00,57.0,49.4,26.65,ENE,68,0.0,0.0,76,0.00,,,0.00,WUHU216HW,2013-09-15 02:12:00,
2013-09-14 22:17:00,57.0,49.8,26.65,ENE,68,0.0,0.0,77,0.00,,,0.00,WUHU216HW,2013-09-15 02:17:00,
2013-09-14 22:22:00,56.8,49.6,26.65,ENE,68,0.0,0.0,77,0.00,,,0.00,WUHU216HW,2013-09-15 02:22:00,
2013-09-14 22:27:00,56.8,49.6,26.66,ENE,68,0.0,0.0,77,0.00,,,0.00,WUHU216HW,2013-09-15 02:27:00,
2013-09-14 22:32:00,56.6,49.4,26.66,ENE,68,0.0,0.0,77,0.00,,,0.00,WUHU216HW,2013-09-15 02:32:00,
2013-09-14 22:37:00,56.4,49.6,26.66,ENE,68,0.0,0.0,78,0.00,,,0.00,WUHU216HW,2013-09-15 02:37:00,
2013-09-14 22:42:00,56.4,49.6,26.65,ENE,68,0.0,0.0,78,0.00,,,0.00,WUHU216HW,2013-09-15 02:42:00,
2013-09-14 22:47:00,56.3,49.4,26.66,ENE,68,0.0,0.0,78,0.00,,,0.00,WUHU216HW,2013-09-15 02:47:00,
2013-09-14 22:52:00,56.3,49.4,26.66,ENE,68,0.0,0.0,78,0.00,,,0.00,WUHU216HW,2013-09-15 02:52:00,
2013-09-14 22:57:00,56.1,49.2,26.66,ENE,68,0.0,0.0,78,0.00,,,0.00,WUHU216HW,2013-09-15 02:57:00,
2013-09-14 23:02:00,56.1,49.2,26.66,ENE,68,0.0,0.0,78,0.00,,,0.00,WUHU216HW,2013-09-15 03:02:00,
2013-09-14 23:07:00,55.9,49.1,26.66,ENE,68,0.0,0.0,78,0.00,,,0.00,WUHU216HW,2013-09-15 03:07:00,
2013-09-14 23:12:00,55.9,49.1,26.66,ENE,68,0.0,0.0,78,0.00,,,0.00,WUHU216HW,2013-09-15 03:12:00,
2013-09-14 23:17:00,55.7,48.9,26.66,ENE,68,0.0,0.0,78,0.00,,,0.00,WUHU216HW,2013-09-15 03:17:00,
2013-09-14 23:22:00,55.7,49.2,26.66,ENE,68,0.0,0.0,79,0.00,,,0.00,WUHU216HW,2013-09-15 03:22:00,
2013-09-14 23:27:00,55.5,49.1,26.67,ENE,68,0.0,0.0,79,0.00,,,0.00,WUHU216HW,2013-09-15 03:27:00,
2013-09-14 23:32:00,55.4,48.9,26.67,ENE,68,0.0,0.0,79,0.00,,,0.00,WUHU216HW,2013-09-15 03:32:00,
2013-09-14 23:37:00,55.2,48.7,26.67,ENE,68,0.0,0.0,79,0.00,,,0.00,WUHU216HW,2013-09-15 03:37:00,
2013-09-14 23:42:00,55.2,48.7,26.67,ENE,68,0.0,0.0,79,0.00,,,0.00,WUHU216HW,2013-09-15 03:42:00,
2013-09-14 23:47:00,55.2,48.7,26.67,ENE,68,0.0,0.0,79,0.00,,,0.00,WUHU216HW,2013-09-15 03:47:00,
2013-09-14 23:52:00,55.0,48.9,26.66,ENE,68,0.0,0.0,80,0.00,,,0.00,WUHU216HW,2013-09-15 03:52:00,
2013-09-14 23:57:00,55.0,48.9,26.66,ENE,68,0.0,0.0,80,0.00,,,0.00,WUHU216HW,2013-09-15 03:57:00,